createdAt,value
2023-03-29T00:01:34.906Z,101549.06
2023-03-29T00:04:07.583Z,101549.75
2023-03-29T00:06:37.472Z,101537.38
2023-03-29T00:09:09.899Z,101538.78
2023-03-29T00:11:39.629Z,101540.00
2023-03-29T00:14:09.346Z,101533.81
2023-03-29T00:16:39.678Z,101528.91
2023-03-29T00:19:09.428Z,101529.25
2023-03-29T00:21:39.132Z,101527.31
2023-03-29T00:24:08.991Z,101531.97
2023-03-29T00:26:38.606Z,101535.75
2023-03-29T00:29:08.337Z,101528.47
2023-03-29T00:31:38.051Z,101528.56
2023-03-29T00:34:07.749Z,101519.50
2023-03-29T00:36:37.408Z,101518.50
2023-03-29T00:39:07.008Z,101514.91
2023-03-29T00:41:36.708Z,101502.50
2023-03-29T00:44:07.334Z,101499.78
2023-03-29T00:46:37.518Z,101496.72
2023-03-29T00:49:15.413Z,101498.41
2023-03-29T00:51:45.751Z,101496.75
2023-03-29T00:54:20.178Z,101496.16
2023-03-29T00:56:53.116Z,101486.84
2023-03-29T00:59:26.456Z,101496.16
2023-03-29T01:02:08.553Z,101488.13
2023-03-29T01:04:52.484Z,101493.09
2023-03-29T01:07:25.264Z,101488.97
2023-03-29T01:10:06.613Z,101490.94
2023-03-29T01:12:41.363Z,101486.53
2023-03-29T01:15:30.190Z,101484.25
2023-03-29T01:18:03.322Z,101474.38
2023-03-29T01:20:52.611Z,101477.22
2023-03-29T01:24:08.172Z,101466.47
2023-03-29T01:27:02.515Z,101465.91
2023-03-29T01:30:07.016Z,101463.19
2023-03-29T01:32:40.935Z,101460.69
2023-03-29T01:35:37.287Z,101458.06
2023-03-29T01:38:16.063Z,101452.63
2023-03-29T01:40:45.688Z,101461.22
2023-03-29T01:43:19.121Z,101449.34
2023-03-29T01:45:56.183Z,101447.97
2023-03-29T01:48:29.938Z,101446.06
2023-03-29T01:51:09.198Z,101439.16
2023-03-29T01:53:41.259Z,101414.25
2023-03-29T01:56:18.824Z,101427.63
2023-03-29T01:58:53.336Z,101432.78
2023-03-29T02:01:28.070Z,101436.66
2023-03-29T02:04:04.303Z,101437.19
2023-03-29T02:06:36.037Z,101428.59
2023-03-29T02:09:06.777Z,101422.56
2023-03-29T02:11:37.984Z,101426.97
2023-03-29T02:14:08.003Z,101424.31
2023-03-29T02:16:40.505Z,101417.34
2023-03-29T02:19:12.222Z,101405.34
2023-03-29T02:21:50.656Z,101402.75
2023-03-29T02:24:23.743Z,101407.81
2023-03-29T02:26:53.502Z,101396.16
2023-03-29T02:29:23.100Z,101391.91
2023-03-29T02:32:00.401Z,101390.94
2023-03-29T02:34:39.161Z,101385.81
2023-03-29T02:37:17.231Z,101377.00
2023-03-29T02:39:51.137Z,101380.75
2023-03-29T02:42:21.906Z,101369.50
2023-03-29T02:44:54.345Z,101375.28
2023-03-29T02:47:40.765Z,101369.78
2023-03-29T02:50:10.180Z,101369.34
2023-03-29T02:52:44.620Z,101363.59
2023-03-29T02:55:19.304Z,101361.19
2023-03-29T02:57:48.884Z,101349.00
2023-03-29T03:00:21.428Z,101351.38
2023-03-29T03:02:52.361Z,101351.22
2023-03-29T03:05:22.170Z,101349.38
2023-03-29T03:07:51.832Z,101351.00
2023-03-29T03:10:21.546Z,101339.63
2023-03-29T03:12:51.321Z,101330.56
2023-03-29T03:15:21.434Z,101326.66
2023-03-29T03:17:50.988Z,101333.94
2023-03-29T03:20:23.635Z,101321.94
2023-03-29T03:22:53.281Z,101315.47
2023-03-29T03:25:23.530Z,101309.06
2023-03-29T03:27:53.619Z,101318.22
2023-03-29T03:30:23.445Z,101313.81
2023-03-29T03:32:53.127Z,101306.78
2023-03-29T03:35:23.660Z,101300.53
2023-03-29T03:37:53.295Z,101285.09
2023-03-29T03:40:23.596Z,101291.38
2023-03-29T03:42:53.461Z,101296.56
2023-03-29T03:45:23.402Z,101283.88
2023-03-29T03:47:53.696Z,101287.47
2023-03-29T03:50:23.433Z,101276.44
2023-03-29T03:52:53.577Z,101276.84
2023-03-29T03:55:23.604Z,101246.44
2023-03-29T03:57:54.102Z,101257.66
2023-03-29T04:00:24.908Z,101256.63
2023-03-29T04:02:58.317Z,101245.13
2023-03-29T04:05:28.620Z,101246.66
2023-03-29T04:07:58.848Z,101239.78
2023-03-29T04:10:28.576Z,101234.69
2023-03-29T04:12:58.413Z,101227.00
2023-03-29T04:15:28.131Z,101212.44
2023-03-29T04:18:03.285Z,101221.13
2023-03-29T04:20:32.899Z,101224.78
2023-03-29T04:23:02.529Z,101224.84
2023-03-29T04:25:32.175Z,101218.38
2023-03-29T04:28:02.103Z,101211.03
2023-03-29T04:30:31.758Z,101199.69
2023-03-29T04:33:01.914Z,101199.75
2023-03-29T04:35:31.832Z,101193.06
2023-03-29T04:38:01.532Z,101190.91
2023-03-29T04:40:31.197Z,101187.47
2023-03-29T04:43:02.356Z,101185.03
2023-03-29T04:45:32.943Z,101188.31
2023-03-29T04:48:02.681Z,101174.72
2023-03-29T04:50:33.455Z,101178.97
2023-03-29T04:53:03.224Z,101172.19
2023-03-29T04:55:33.040Z,101170.28
2023-03-29T04:58:02.787Z,101161.44
2023-03-29T05:00:33.092Z,101165.38
2023-03-29T05:03:02.803Z,101154.84
2023-03-29T05:05:33.343Z,101151.06
2023-03-29T05:08:03.138Z,101134.75
2023-03-29T05:10:32.904Z,101146.25
2023-03-29T05:13:02.600Z,101141.28
2023-03-29T05:15:33.402Z,101142.44
2023-03-29T05:18:03.038Z,101133.59
2023-03-29T05:20:32.916Z,101132.31
2023-03-29T05:23:02.943Z,101128.84
2023-03-29T05:25:32.576Z,101131.31
2023-03-29T05:28:03.028Z,101134.09
2023-03-29T05:30:32.666Z,101128.38
2023-03-29T05:33:04.482Z,101120.38
2023-03-29T05:35:34.531Z,101135.59
2023-03-29T05:38:05.918Z,101125.59
2023-03-29T05:40:37.284Z,101119.06
2023-03-29T05:43:06.903Z,101121.03
2023-03-29T05:45:36.525Z,101121.34
2023-03-29T05:48:06.950Z,101115.75
2023-03-29T05:50:38.409Z,101109.00
2023-03-29T05:53:08.050Z,101110.34
2023-03-29T05:55:37.623Z,101116.03
2023-03-29T05:58:07.182Z,101113.25
2023-03-29T06:00:39.416Z,101105.75
2023-03-29T06:03:18.007Z,101105.59
2023-03-29T06:05:52.323Z,101101.34
2023-03-29T06:08:22.216Z,101097.34
2023-03-29T06:10:51.966Z,101110.94
2023-03-29T06:13:21.832Z,101107.56
2023-03-29T06:15:51.451Z,101101.78
2023-03-29T06:18:21.867Z,101111.00
2023-03-29T06:20:55.315Z,101110.81
2023-03-29T06:23:24.841Z,101107.38
2023-03-29T06:25:54.459Z,101114.59
2023-03-29T06:28:25.637Z,101108.41
2023-03-29T06:30:58.137Z,101112.84
2023-03-29T06:33:28.002Z,101115.59
2023-03-29T06:35:57.848Z,101114.13
2023-03-29T06:38:29.949Z,101111.31
2023-03-29T06:41:08.106Z,101113.00
2023-03-29T06:43:38.153Z,101113.63
2023-03-29T06:46:13.233Z,101106.25
2023-03-29T06:48:43.337Z,101105.28
2023-03-29T06:51:13.016Z,101104.94
2023-03-29T06:53:42.965Z,101104.28
2023-03-29T06:56:12.736Z,101109.56
2023-03-29T06:58:42.496Z,101111.19
2023-03-29T07:01:13.180Z,101110.66
2023-03-29T07:03:44.178Z,101108.56
2023-03-29T07:06:18.014Z,101104.13
2023-03-29T07:08:48.532Z,101109.69
2023-03-29T07:11:20.202Z,101110.66
2023-03-29T07:13:50.605Z,101103.81
2023-03-29T07:16:20.879Z,101111.28
2023-03-29T07:18:50.632Z,101104.41
2023-03-29T07:21:20.216Z,101107.53
2023-03-29T07:23:49.750Z,101108.03
2023-03-29T07:26:28.938Z,101106.53
2023-03-29T07:29:00.291Z,101097.88
2023-03-29T07:31:34.473Z,101104.75
2023-03-29T07:34:08.140Z,101108.00
2023-03-29T07:36:38.465Z,101107.53
2023-03-29T07:39:10.692Z,101110.63
2023-03-29T07:41:40.478Z,101119.38
2023-03-29T07:44:10.929Z,101110.72
2023-03-29T07:46:40.762Z,101118.44
2023-03-29T07:49:10.444Z,101111.88
2023-03-29T07:51:40.097Z,101116.06
2023-03-29T07:54:09.782Z,101114.31
2023-03-29T07:56:39.339Z,101115.53
2023-03-29T07:59:08.959Z,101116.63
2023-03-29T08:01:38.559Z,101113.03
2023-03-29T08:04:08.486Z,101114.97
2023-03-29T08:06:39.007Z,101111.53
2023-03-29T08:09:08.598Z,101122.38
2023-03-29T08:11:41.398Z,101117.28
2023-03-29T08:14:10.957Z,101120.84
2023-03-29T08:16:40.583Z,101128.00
2023-03-29T08:19:10.372Z,101128.94
2023-03-29T08:21:39.936Z,101115.56
2023-03-29T08:24:09.865Z,101127.19
2023-03-29T08:26:39.520Z,101119.09
2023-03-29T08:29:10.418Z,101121.13
2023-03-29T08:31:40.136Z,101119.75
2023-03-29T08:34:09.783Z,101122.66
2023-03-29T08:36:39.549Z,101130.13
2023-03-29T08:39:09.226Z,101126.66
2023-03-29T08:41:41.877Z,101131.31
2023-03-29T08:44:22.070Z,101143.19
2023-03-29T08:47:04.347Z,101129.44
2023-03-29T08:49:34.430Z,101137.06
2023-03-29T08:52:08.605Z,101130.25
2023-03-29T08:54:45.525Z,101133.22
2023-03-29T08:57:32.689Z,101131.78
2023-03-29T09:00:09.054Z,101127.69
2023-03-29T09:02:39.599Z,101126.78
2023-03-29T09:05:24.691Z,101136.56
2023-03-29T09:07:55.451Z,101148.25
2023-03-29T09:10:58.090Z,101150.94
2023-03-29T09:13:34.943Z,101147.03
2023-03-29T09:16:19.342Z,101152.22
2023-03-29T09:19:18.434Z,101151.19
2023-03-29T09:22:00.166Z,101150.47
2023-03-29T09:24:40.280Z,101156.44
2023-03-29T09:27:17.596Z,101153.41
2023-03-29T09:29:50.310Z,101153.09
2023-03-29T09:32:28.153Z,101158.63
2023-03-29T09:35:19.699Z,101150.19
2023-03-29T09:37:52.776Z,101148.81
2023-03-29T09:40:45.431Z,101155.78
2023-03-29T09:43:19.884Z,101140.69
2023-03-29T09:45:58.538Z,101152.41
2023-03-29T09:48:31.866Z,101159.78
2023-03-29T09:51:04.474Z,101161.63
2023-03-29T09:53:34.420Z,101162.06
2023-03-29T09:56:04.747Z,101163.78
2023-03-29T09:58:34.472Z,101160.44
2023-03-29T10:01:11.552Z,101162.72
2023-03-29T10:03:43.080Z,101150.53
2023-03-29T10:06:14.251Z,101165.09
2023-03-29T10:08:58.270Z,101158.75
2023-03-29T10:11:36.426Z,101156.09
2023-03-29T10:14:19.193Z,101163.09
2023-03-29T10:16:49.147Z,101169.69
2023-03-29T10:19:25.767Z,101160.94
2023-03-29T10:21:57.114Z,101160.25
2023-03-29T10:24:28.997Z,101160.75
2023-03-29T10:27:13.145Z,101167.66
2023-03-29T10:29:44.646Z,101166.91
2023-03-29T10:32:34.209Z,101166.09
2023-03-29T10:35:12.352Z,101173.69
2023-03-29T10:37:47.522Z,101182.13
2023-03-29T10:40:44.758Z,101180.13
2023-03-29T10:43:22.845Z,101174.44
2023-03-29T10:45:57.936Z,101171.47
2023-03-29T10:48:32.408Z,101186.72
2023-03-29T10:51:04.019Z,101188.38
2023-03-29T10:53:39.263Z,101190.31
2023-03-29T10:56:24.566Z,101184.78
2023-03-29T10:59:06.315Z,101189.25
2023-03-29T11:02:08.234Z,101199.47
2023-03-29T11:05:00.672Z,101195.59
2023-03-29T11:07:57.831Z,101202.53
2023-03-29T11:11:02.872Z,101200.41
2023-03-29T11:13:59.754Z,101197.94
2023-03-29T11:17:02.450Z,101201.00
2023-03-29T11:19:58.011Z,101206.03
2023-03-29T11:22:49.363Z,101206.28
2023-03-29T11:25:41.108Z,101212.44
2023-03-29T11:28:13.642Z,101210.56
2023-03-29T11:31:02.403Z,101212.44
2023-03-29T11:33:56.415Z,101213.97
2023-03-29T11:36:53.511Z,101214.81
2023-03-29T11:39:47.672Z,101216.75
2023-03-29T11:42:26.718Z,101218.72
2023-03-29T11:44:59.113Z,101212.69
2023-03-29T11:47:35.134Z,101218.59
2023-03-29T11:50:21.114Z,101217.06
2023-03-29T11:53:14.786Z,101221.47
2023-03-29T11:55:45.613Z,101218.16
2023-03-29T11:58:25.102Z,101216.47
2023-03-29T12:01:00.395Z,101223.03
2023-03-29T12:03:43.644Z,101220.84
2023-03-29T12:06:33.455Z,101224.16
2023-03-29T12:09:24.138Z,101227.19
2023-03-29T12:12:31.500Z,101226.63
2023-03-29T12:15:26.357Z,101229.13
2023-03-29T12:18:01.910Z,101233.56
2023-03-29T12:20:37.130Z,101228.34
2023-03-29T12:23:09.220Z,101231.41
2023-03-29T12:26:03.975Z,101230.53
2023-03-29T12:29:08.721Z,101231.66
2023-03-29T12:31:55.004Z,101225.84
2023-03-29T12:35:01.370Z,101236.63
2023-03-29T12:37:42.965Z,101227.53
2023-03-29T12:40:21.153Z,101238.88
2023-03-29T12:42:55.831Z,101225.09
2023-03-29T12:45:44.423Z,101236.38
2023-03-29T12:48:29.179Z,101221.50
2023-03-29T12:51:03.364Z,101243.25
2023-03-29T12:53:44.125Z,101241.34
2023-03-29T12:56:20.269Z,101242.16
2023-03-29T12:59:01.931Z,101231.44
2023-03-29T13:01:35.438Z,101231.97
2023-03-29T13:04:05.639Z,101227.59
2023-03-29T13:06:54.135Z,101239.41
2023-03-29T13:09:51.577Z,101228.69
2023-03-29T13:12:46.221Z,101243.28
2023-03-29T13:15:19.179Z,101240.50
2023-03-29T13:17:52.140Z,101239.63
2023-03-29T13:20:46.031Z,101235.81
2023-03-29T13:23:30.822Z,101245.19
2023-03-29T13:26:21.692Z,101242.44
2023-03-29T13:29:09.435Z,101238.56
2023-03-29T13:31:46.791Z,101237.19
2023-03-29T13:34:35.337Z,101243.53
2023-03-29T13:37:22.421Z,101241.34
2023-03-29T13:39:55.281Z,101241.88
2023-03-29T13:42:44.932Z,101244.59
2023-03-29T13:45:30.655Z,101244.56
2023-03-29T13:48:07.975Z,101240.16
2023-03-29T13:50:54.016Z,101233.56
2023-03-29T13:54:03.834Z,101239.88
2023-03-29T13:57:02.983Z,101239.63
2023-03-29T14:00:23.458Z,101242.94
2023-03-29T14:02:55.119Z,101238.38
2023-03-29T14:05:32.343Z,101237.34
2023-03-29T14:08:21.029Z,101241.59
2023-03-29T14:10:53.719Z,101237.88
2023-03-29T14:13:30.618Z,101242.41
2023-03-29T14:16:13.547Z,101241.19
2023-03-29T14:18:46.504Z,101246.63
2023-03-29T14:21:19.246Z,101249.53
2023-03-29T14:23:56.456Z,101249.63
2023-03-29T14:26:33.178Z,101244.69
2023-03-29T14:29:06.253Z,101251.00
2023-03-29T14:31:40.317Z,101249.00
2023-03-29T14:34:21.809Z,101259.13
2023-03-29T14:36:54.757Z,101259.16
2023-03-29T14:39:26.794Z,101251.44
2023-03-29T14:42:00.351Z,101252.03
2023-03-29T14:44:36.796Z,101248.78
2023-03-29T14:47:07.372Z,101252.06
2023-03-29T14:49:38.069Z,101242.38
2023-03-29T14:52:08.535Z,101250.06
2023-03-29T14:54:38.541Z,101249.59
2023-03-29T14:57:09.773Z,101239.78
2023-03-29T14:59:44.553Z,101235.72
2023-03-29T15:02:34.111Z,101239.28
2023-03-29T15:05:09.626Z,101237.03
2023-03-29T15:07:41.378Z,101233.50
2023-03-29T15:10:18.915Z,101232.63
2023-03-29T15:12:52.152Z,101235.78
2023-03-29T15:15:23.665Z,101228.50
2023-03-29T15:17:54.675Z,101231.97
2023-03-29T15:20:42.462Z,101228.41
2023-03-29T15:23:25.325Z,101229.78
2023-03-29T15:26:26.179Z,101236.19
2023-03-29T15:29:24.734Z,101243.84
2023-03-29T15:32:02.271Z,101232.97
2023-03-29T15:34:35.388Z,101224.44
2023-03-29T15:37:05.785Z,101226.03
2023-03-29T15:39:36.496Z,101226.34
2023-03-29T15:42:06.186Z,101238.88
2023-03-29T15:44:36.821Z,101231.78
2023-03-29T15:47:11.758Z,101237.47
2023-03-29T15:49:42.158Z,101229.41
2023-03-29T15:52:12.027Z,101237.19
2023-03-29T15:54:42.798Z,101235.03
2023-03-29T15:57:17.388Z,101238.63
2023-03-29T15:59:47.533Z,101238.53
2023-03-29T16:02:18.468Z,101236.25
2023-03-29T16:04:48.338Z,101234.34
2023-03-29T16:07:23.360Z,101220.50
2023-03-29T16:09:53.259Z,101219.41
2023-03-29T16:12:24.559Z,101224.84
2023-03-29T16:14:54.688Z,101216.75
2023-03-29T16:17:24.412Z,101222.63
2023-03-29T16:19:54.063Z,101218.47
2023-03-29T16:22:25.544Z,101218.25
2023-03-29T16:24:56.487Z,101220.69
2023-03-29T16:27:26.172Z,101217.72
2023-03-29T16:29:56.147Z,101218.13
2023-03-29T16:32:25.933Z,101213.16
2023-03-29T16:34:56.906Z,101207.41
2023-03-29T16:37:28.121Z,101218.34
2023-03-29T16:40:01.897Z,101203.25
2023-03-29T16:42:31.663Z,101215.25
2023-03-29T16:45:06.614Z,101209.97
2023-03-29T16:47:36.671Z,101152.97
2023-03-29T16:50:06.709Z,101209.50
2023-03-29T16:52:36.406Z,101206.47
2023-03-29T16:55:07.471Z,101213.25
2023-03-29T16:57:37.429Z,101202.66
2023-03-29T17:00:08.422Z,101164.28
2023-03-29T17:02:38.697Z,101169.41
2023-03-29T17:05:08.837Z,101201.88
2023-03-29T17:07:38.563Z,101201.94
2023-03-29T17:10:12.217Z,101165.38
2023-03-29T17:12:41.637Z,101197.81
2023-03-29T17:15:12.087Z,101183.41
2023-03-29T17:17:42.345Z,101195.56
2023-03-29T17:20:13.900Z,101158.94
2023-03-29T17:22:54.263Z,101146.28
2023-03-29T17:25:26.004Z,101143.94
2023-03-29T17:27:55.677Z,101117.84
2023-03-29T17:30:32.036Z,101125.53
2023-03-29T17:33:03.900Z,101124.59
2023-03-29T17:35:33.864Z,101177.16
2023-03-29T17:38:04.408Z,101170.75
2023-03-29T17:40:34.101Z,101191.25
2023-03-29T17:43:03.863Z,101118.56
2023-03-29T17:45:33.865Z,101173.28
2023-03-29T17:48:06.064Z,101159.81
2023-03-29T17:50:36.671Z,101174.97
2023-03-29T17:53:07.162Z,101146.38
2023-03-29T17:55:36.902Z,101165.16
2023-03-29T17:58:07.105Z,101163.44
2023-03-29T18:00:37.281Z,101157.75
2023-03-29T18:03:07.337Z,101160.00
2023-03-29T18:05:37.873Z,101167.38
2023-03-29T18:08:07.721Z,101160.19
2023-03-29T18:10:38.330Z,101151.09
2023-03-29T18:13:08.286Z,101163.31
2023-03-29T18:15:37.929Z,101146.06
2023-03-29T18:18:07.927Z,101155.09
2023-03-29T18:20:37.843Z,101149.53
2023-03-29T18:23:07.670Z,101147.53
2023-03-29T18:25:37.449Z,101149.69
2023-03-29T18:28:08.171Z,101150.78
2023-03-29T18:30:38.911Z,101152.78
2023-03-29T18:33:09.002Z,101145.19
2023-03-29T18:35:40.035Z,101153.09
2023-03-29T18:38:10.289Z,101142.66
2023-03-29T18:40:40.660Z,101147.63
2023-03-29T18:43:10.269Z,101151.13
2023-03-29T18:45:39.936Z,101134.75
2023-03-29T18:48:09.686Z,101137.56
2023-03-29T18:50:40.446Z,101140.31
2023-03-29T18:53:12.667Z,101143.66
2023-03-29T18:55:46.090Z,101138.25
2023-03-29T18:58:17.210Z,101136.59
2023-03-29T19:00:47.078Z,101130.44
2023-03-29T19:03:16.841Z,101137.81
2023-03-29T19:05:46.607Z,101132.66
2023-03-29T19:08:16.293Z,101132.16
2023-03-29T19:10:46.475Z,101126.53
2023-03-29T19:13:20.877Z,101129.56
2023-03-29T19:15:50.575Z,101129.97
2023-03-29T19:18:20.242Z,101115.88
2023-03-29T19:20:55.305Z,101127.97
2023-03-29T19:23:29.747Z,101126.03
2023-03-29T19:26:02.572Z,101126.19
2023-03-29T19:28:33.305Z,101117.81
2023-03-29T19:31:04.595Z,101123.75
2023-03-29T19:33:34.525Z,101116.31
2023-03-29T19:36:04.525Z,101132.31
2023-03-29T19:38:34.411Z,101132.50
2023-03-29T19:41:04.247Z,101119.41
2023-03-29T19:43:34.020Z,101126.28
2023-03-29T19:46:12.202Z,101130.47
2023-03-29T19:48:42.656Z,101119.22
2023-03-29T19:51:12.312Z,101127.69
2023-03-29T19:53:42.018Z,101129.91
2023-03-29T19:56:12.394Z,101132.66
2023-03-29T19:58:42.335Z,101136.38
2023-03-29T20:01:12.228Z,101140.75
2023-03-29T20:03:43.546Z,101144.66
2023-03-29T20:06:13.597Z,101142.41
2023-03-29T20:08:43.306Z,101149.97
2023-03-29T20:11:13.930Z,101143.09
2023-03-29T20:13:47.361Z,101140.28
2023-03-29T20:16:19.072Z,101142.25
2023-03-29T20:18:48.955Z,101141.50
2023-03-29T20:21:19.848Z,101139.94
2023-03-29T20:23:49.651Z,101141.84
2023-03-29T20:26:19.795Z,101138.09
2023-03-29T20:28:49.440Z,101142.66
2023-03-29T20:31:19.209Z,101151.53
2023-03-29T20:33:48.862Z,101156.28
2023-03-29T20:36:24.497Z,101155.66
2023-03-29T20:38:56.777Z,101149.38
2023-03-29T20:41:26.582Z,101152.59
2023-03-29T20:44:01.876Z,101157.97
2023-03-29T20:46:35.008Z,101154.19
2023-03-29T20:49:07.308Z,101157.09
2023-03-29T20:51:39.660Z,101159.91
2023-03-29T20:54:11.520Z,101152.59
2023-03-29T20:56:43.754Z,101151.16
2023-03-29T20:59:13.752Z,101150.53
2023-03-29T21:01:43.872Z,101158.41
2023-03-29T21:04:13.680Z,101159.59
2023-03-29T21:06:43.276Z,101159.06
2023-03-29T21:09:14.044Z,101158.81
2023-03-29T21:11:43.752Z,101161.50
2023-03-29T21:14:13.801Z,101160.75
2023-03-29T21:16:48.041Z,101162.75
2023-03-29T21:19:19.003Z,101166.47
2023-03-29T21:21:49.755Z,101166.06
2023-03-29T21:24:19.623Z,101167.22
2023-03-29T21:26:49.386Z,101165.91
2023-03-29T21:29:19.014Z,101160.69
2023-03-29T21:31:48.636Z,101163.59
2023-03-29T21:34:18.552Z,101172.78
2023-03-29T21:36:48.131Z,101168.75
2023-03-29T21:39:17.988Z,101174.88
2023-03-29T21:41:47.855Z,101172.72
2023-03-29T21:44:17.747Z,101173.72
2023-03-29T21:46:47.709Z,101176.03
2023-03-29T21:49:17.360Z,101175.63
2023-03-29T21:51:47.981Z,101172.88
2023-03-29T21:54:17.667Z,101180.94
2023-03-29T21:56:49.221Z,101171.78
2023-03-29T21:59:18.811Z,101174.09
2023-03-29T22:01:48.433Z,101181.78
2023-03-29T22:04:29.241Z,101171.13
2023-03-29T22:07:05.531Z,101169.44
2023-03-29T22:09:36.486Z,101165.13
2023-03-29T22:12:07.087Z,101174.38
2023-03-29T22:14:37.208Z,101174.19
2023-03-29T22:17:08.454Z,101176.41
2023-03-29T22:19:41.563Z,101179.69
2023-03-29T22:22:14.838Z,101173.03
2023-03-29T22:24:44.661Z,101178.56
2023-03-29T22:27:14.294Z,101181.25
2023-03-29T22:29:43.942Z,101185.56
2023-03-29T22:32:13.554Z,101181.31
2023-03-29T22:34:43.245Z,101183.44
2023-03-29T22:37:13.603Z,101176.81
2023-03-29T22:39:43.256Z,101189.38
2023-03-29T22:42:12.974Z,101177.56
2023-03-29T22:44:42.788Z,101178.03
2023-03-29T22:47:12.562Z,101188.66
2023-03-29T22:49:42.518Z,101191.03
2023-03-29T22:52:12.180Z,101189.59
2023-03-29T22:54:42.031Z,101187.84
2023-03-29T22:57:11.699Z,101189.84
2023-03-29T22:59:41.404Z,101179.50
2023-03-29T23:02:11.086Z,101176.56
2023-03-29T23:04:40.823Z,101184.66
2023-03-29T23:07:10.701Z,101177.94
2023-03-29T23:09:40.286Z,101180.06
2023-03-29T23:12:11.224Z,101178.84
2023-03-29T23:14:44.153Z,101177.72
2023-03-29T23:17:14.923Z,101191.19
2023-03-29T23:19:44.713Z,101194.69
2023-03-29T23:22:15.106Z,101193.34
2023-03-29T23:24:45.353Z,101192.69
2023-03-29T23:27:15.302Z,101203.88
2023-03-29T23:29:46.660Z,101195.16
2023-03-29T23:32:17.237Z,101195.28
2023-03-29T23:34:47.125Z,101202.97
2023-03-29T23:37:16.730Z,101206.91
2023-03-29T23:39:46.317Z,101218.03
2023-03-29T23:42:15.927Z,101212.81
2023-03-29T23:44:45.555Z,101217.56
2023-03-29T23:47:15.454Z,101213.41
2023-03-29T23:49:46.770Z,101213.78
2023-03-29T23:52:16.380Z,101197.09
2023-03-29T23:54:45.975Z,101217.06
2023-03-29T23:57:15.619Z,101209.81
2023-03-29T23:59:45.218Z,101215.84
